createdAt,value
2023-03-14T00:04:08.262Z,99758.31
2023-03-14T00:09:13.241Z,99767.28
2023-03-14T00:14:18.949Z,99795.94
2023-03-14T00:19:23.622Z,99773.03
2023-03-14T00:24:28.220Z,99766.28
2023-03-14T00:29:32.898Z,99785.91
2023-03-14T00:34:37.665Z,99803.41
2023-03-14T00:39:42.526Z,99806.34
2023-03-14T00:44:48.267Z,99805.25
2023-03-14T00:49:53.014Z,99831.47
2023-03-14T00:54:57.615Z,99838.69
2023-03-14T01:00:02.505Z,99808.41
2023-03-14T01:05:07.625Z,99807.44
2023-03-14T01:10:13.339Z,99802.69
2023-03-14T01:15:18.222Z,99796.81
2023-03-14T01:20:22.904Z,99792.72
2023-03-14T01:25:28.224Z,99804.19
2023-03-14T01:30:33.061Z,99792.25
2023-03-14T01:35:37.928Z,99804.88
2023-03-14T01:40:47.443Z,99806.59
2023-03-14T01:46:02.724Z,99807.63
2023-03-14T01:51:16.718Z,99825.44
2023-03-14T01:56:22.099Z,99812.59
2023-03-14T02:01:28.837Z,99821.13
2023-03-14T02:06:58.922Z,99808.72
2023-03-14T02:12:11.123Z,99830.78
2023-03-14T02:17:26.584Z,99848.34
2023-03-14T02:22:51.358Z,99848.22
2023-03-14T02:27:57.129Z,99849.94
2023-03-14T02:33:06.790Z,99830.06
2023-03-14T02:38:33.815Z,99814.28
2023-03-14T02:43:41.008Z,99797.56
2023-03-14T02:49:00.547Z,99802.25
2023-03-14T02:54:05.277Z,99803.75
2023-03-14T02:59:10.120Z,99798.34
2023-03-14T03:04:23.628Z,99800.03
2023-03-14T03:09:28.260Z,99812.91
2023-03-14T03:14:33.900Z,99804.78
2023-03-14T03:19:41.722Z,99813.13
2023-03-14T03:24:48.490Z,99809.63
2023-03-14T03:29:52.641Z,99805.28
2023-03-14T03:34:57.840Z,99799.66
2023-03-14T03:40:03.282Z,99787.31
2023-03-14T03:45:09.284Z,99782.66
2023-03-14T03:50:20.051Z,99793.22
2023-03-14T03:55:24.776Z,99813.91
2023-03-14T04:00:29.554Z,99784.50
2023-03-14T04:05:34.093Z,99788.41
2023-03-14T04:10:44.636Z,99780.00
2023-03-14T04:16:17.989Z,99774.69
2023-03-14T04:21:23.210Z,99774.28
2023-03-14T04:26:33.061Z,99778.75
2023-03-14T04:31:38.046Z,99762.97
2023-03-14T04:36:42.857Z,99755.53
2023-03-14T04:41:52.710Z,99748.91
2023-03-14T04:46:57.951Z,99735.06
2023-03-14T04:52:03.520Z,99754.47
2023-03-14T04:57:09.589Z,99730.31
2023-03-14T05:02:15.759Z,99718.25
2023-03-14T05:07:32.604Z,99706.19
2023-03-14T05:12:56.275Z,99697.59
2023-03-14T05:18:25.206Z,99680.31
2023-03-14T05:23:46.551Z,99678.28
2023-03-14T05:29:08.073Z,99682.56
2023-03-14T05:34:22.355Z,99673.81
2023-03-14T05:39:45.068Z,99664.00
2023-03-14T05:45:21.677Z,99669.66
2023-03-14T05:51:01.434Z,99681.53
2023-03-14T05:56:26.076Z,99686.78
2023-03-14T06:01:42.171Z,99710.56
2023-03-14T06:06:56.925Z,99722.28
2023-03-14T06:12:01.672Z,99740.81
2023-03-14T06:17:11.697Z,99734.28
2023-03-14T06:22:25.757Z,99746.31
2023-03-14T06:27:31.789Z,99756.06
2023-03-14T06:32:36.765Z,99758.28
2023-03-14T06:37:46.083Z,99773.44
2023-03-14T06:42:51.763Z,99782.13
2023-03-14T06:47:58.841Z,99822.50
2023-03-14T06:53:12.914Z,99816.78
2023-03-14T06:58:20.321Z,99815.53
2023-03-14T07:03:25.344Z,99825.97
2023-03-14T07:08:40.282Z,99830.41
2023-03-14T07:13:45.044Z,99873.34
2023-03-14T07:18:51.385Z,99843.56
2023-03-14T07:23:57.319Z,99857.91
2023-03-14T07:29:05.379Z,99907.41
2023-03-14T07:34:10.137Z,99899.53
2023-03-14T07:39:18.243Z,99886.47
2023-03-14T07:44:35.997Z,99932.50
2023-03-14T07:49:40.594Z,99933.22
2023-03-14T07:54:45.285Z,99955.66
2023-03-14T07:59:50.029Z,99980.69
2023-03-14T08:04:54.816Z,99997.28
2023-03-14T08:09:59.413Z,100021.84
2023-03-14T08:15:04.417Z,100043.66
2023-03-14T08:20:10.770Z,100061.66
2023-03-14T08:25:15.667Z,100092.13
2023-03-14T08:30:22.516Z,100118.16
2023-03-14T08:35:28.739Z,100148.50
2023-03-14T08:40:33.435Z,100161.75
2023-03-14T08:45:38.229Z,100202.22
2023-03-14T08:50:42.925Z,100223.28
2023-03-14T08:55:47.577Z,100237.72
2023-03-14T09:00:52.600Z,100247.78
2023-03-14T09:05:57.292Z,100250.91
2023-03-14T09:11:03.520Z,100262.81
2023-03-14T09:16:08.926Z,100291.16
2023-03-14T09:21:14.005Z,100313.19
2023-03-14T09:26:18.788Z,100330.59
2023-03-14T09:31:23.679Z,100331.94
2023-03-14T09:36:27.837Z,100343.78
2023-03-14T09:41:39.697Z,100411.25
2023-03-14T09:46:49.841Z,100388.84
2023-03-14T09:51:58.649Z,100404.81
2023-03-14T09:57:03.562Z,100422.94
2023-03-14T10:02:26.719Z,100454.53
2023-03-14T10:07:33.999Z,100500.88
2023-03-14T10:12:44.189Z,100479.41
2023-03-14T10:17:53.572Z,100511.25
2023-03-14T10:22:58.380Z,100536.25
2023-03-14T10:28:04.513Z,100553.63
2023-03-14T10:33:27.936Z,100570.03
2023-03-14T10:38:36.506Z,100590.47
2023-03-14T10:43:41.321Z,100598.66
2023-03-14T10:48:47.954Z,100635.34
2023-03-14T10:54:04.174Z,100651.81
2023-03-14T10:59:17.681Z,100670.34
2023-03-14T11:04:48.483Z,100679.38
2023-03-14T11:10:17.882Z,100703.78
2023-03-14T11:15:42.825Z,100722.88
2023-03-14T11:20:55.554Z,100740.97
2023-03-14T11:26:21.262Z,100759.00
2023-03-14T11:31:41.948Z,100783.53
2023-03-14T11:36:56.575Z,100800.31
2023-03-14T11:42:05.479Z,100822.34
2023-03-14T11:47:29.339Z,100839.47
2023-03-14T11:52:37.531Z,100870.19
2023-03-14T11:57:45.298Z,100851.91
2023-03-14T12:03:18.110Z,100881.78
2023-03-14T12:08:34.505Z,100886.38
2023-03-14T12:13:42.398Z,100920.38
2023-03-14T12:18:48.564Z,100900.78
2023-03-14T12:24:00.178Z,100939.38
2023-03-14T12:29:11.276Z,100945.59
2023-03-14T12:34:16.382Z,100970.97
2023-03-14T12:39:25.670Z,100978.44
2023-03-14T12:44:34.102Z,100963.16
2023-03-14T12:49:42.485Z,100978.81
2023-03-14T12:54:47.526Z,101001.75
2023-03-14T13:00:00.753Z,101014.56
2023-03-14T13:05:12.771Z,101036.91
2023-03-14T13:10:38.190Z,101039.72
2023-03-14T13:15:51.610Z,101047.47
2023-03-14T13:21:05.191Z,101065.19
2023-03-14T13:26:17.524Z,101074.16
2023-03-14T13:31:32.535Z,101085.22
2023-03-14T13:36:39.271Z,101079.19
2023-03-14T13:41:45.748Z,101099.25
2023-03-14T13:46:51.130Z,101129.53
2023-03-14T13:51:57.100Z,101129.91
2023-03-14T13:57:07.573Z,101147.03
2023-03-14T14:02:19.615Z,101154.09
2023-03-14T14:07:25.336Z,101153.75
2023-03-14T14:12:43.181Z,101170.34
2023-03-14T14:17:57.615Z,101191.28
2023-03-14T14:23:09.657Z,101193.31
2023-03-14T14:28:29.131Z,101235.00
2023-03-14T14:33:58.502Z,101203.47
2023-03-14T14:39:20.248Z,101205.22
2023-03-14T14:44:39.665Z,101244.41
2023-03-14T14:49:44.500Z,101252.16
2023-03-14T14:55:02.755Z,101261.88
2023-03-14T15:00:15.456Z,101272.13
2023-03-14T15:05:26.301Z,101281.97
2023-03-14T15:10:31.263Z,101289.41
2023-03-14T15:15:36.833Z,101289.00
2023-03-14T15:20:41.454Z,101308.00
2023-03-14T15:25:55.407Z,101316.00
2023-03-14T15:31:01.687Z,101319.91
2023-03-14T15:36:09.015Z,101348.50
2023-03-14T15:41:13.675Z,101363.00
2023-03-14T15:46:20.683Z,101356.72
2023-03-14T15:51:25.376Z,101378.16
2023-03-14T15:56:33.045Z,101362.53
2023-03-14T16:01:37.933Z,101382.78
2023-03-14T16:06:43.129Z,101394.03
2023-03-14T16:11:48.527Z,101395.06
2023-03-14T16:16:55.343Z,101412.72
2023-03-14T16:22:00.092Z,101416.41
2023-03-14T16:27:05.559Z,101419.97
2023-03-14T16:32:12.294Z,101438.72
2023-03-14T16:37:17.075Z,101442.78
2023-03-14T16:42:22.664Z,101460.75
2023-03-14T16:47:27.492Z,101456.78
2023-03-14T16:52:32.158Z,101470.31
2023-03-14T16:57:37.278Z,101481.94
2023-03-14T17:02:41.994Z,101490.28
2023-03-14T17:07:46.597Z,101503.72
2023-03-14T17:12:52.170Z,101504.59
2023-03-14T17:17:57.412Z,101534.94
2023-03-14T17:23:02.092Z,101513.22
2023-03-14T17:28:07.632Z,101555.03
2023-03-14T17:33:13.853Z,101527.84
2023-03-14T17:38:18.552Z,101571.06
2023-03-14T17:43:23.385Z,101525.50
2023-03-14T17:48:28.528Z,101545.78
2023-03-14T17:53:33.468Z,101552.84
2023-03-14T17:58:39.110Z,101542.38
2023-03-14T18:03:45.140Z,101560.22
2023-03-14T18:08:50.815Z,101568.22
2023-03-14T18:13:55.802Z,101557.69
2023-03-14T18:19:01.389Z,101563.66
2023-03-14T18:24:06.149Z,101568.84
2023-03-14T18:29:10.775Z,101579.22
2023-03-14T18:34:15.429Z,101576.88
2023-03-14T18:39:20.201Z,101570.31
2023-03-14T18:44:26.283Z,101567.69
2023-03-14T18:49:30.989Z,101582.16
2023-03-14T18:54:36.340Z,101571.53
2023-03-14T18:59:41.020Z,101577.47
2023-03-14T19:04:45.543Z,101588.59
2023-03-14T19:09:50.636Z,101568.38
2023-03-14T19:14:55.270Z,101570.13
2023-03-14T19:20:00.052Z,101585.34
2023-03-14T19:25:05.372Z,101591.47
2023-03-14T19:30:10.768Z,101570.66
2023-03-14T19:35:14.899Z,101564.75
2023-03-14T19:40:19.780Z,101561.72
2023-03-14T19:45:35.529Z,101565.44
2023-03-14T19:50:42.629Z,101565.53
2023-03-14T19:55:47.713Z,101567.56
2023-03-14T20:00:52.893Z,101577.94
2023-03-14T20:05:57.868Z,101575.09
2023-03-14T20:11:10.604Z,101574.50
2023-03-14T20:16:15.405Z,101602.47
2023-03-14T20:21:20.062Z,101588.47
2023-03-14T20:26:24.916Z,101591.66
2023-03-14T20:31:29.821Z,101599.44
2023-03-14T20:36:36.019Z,101592.19
2023-03-14T20:41:43.238Z,101617.47
2023-03-14T20:46:47.964Z,101616.44
2023-03-14T20:51:52.745Z,101627.19
2023-03-14T20:56:57.415Z,101623.84
2023-03-14T21:07:23.725Z,101636.69
2023-03-14T21:12:28.484Z,101637.88
2023-03-14T21:17:33.348Z,101646.25
2023-03-14T21:22:38.016Z,101653.56
2023-03-14T21:27:43.662Z,101654.25
2023-03-14T21:32:48.329Z,101671.19
2023-03-14T21:37:52.913Z,101703.16
2023-03-14T21:42:57.766Z,101678.34
2023-03-14T21:48:03.580Z,101678.56
2023-03-14T21:53:08.421Z,101689.41
2023-03-14T21:58:15.474Z,101688.03
2023-03-14T22:03:24.390Z,101708.22
2023-03-14T22:08:30.023Z,101719.66
2023-03-14T22:13:34.682Z,101719.78
2023-03-14T22:18:39.383Z,101717.63
2023-03-14T22:23:44.038Z,101733.53
2023-03-14T22:28:49.460Z,101780.56
2023-03-14T22:33:54.133Z,101757.50
2023-03-14T22:38:59.593Z,101766.34
2023-03-14T22:44:04.444Z,101776.84
2023-03-14T22:49:09.142Z,101795.09
2023-03-14T22:54:13.695Z,101827.22
2023-03-14T22:59:18.381Z,101804.56
2023-03-14T23:04:23.220Z,101828.09
2023-03-14T23:09:27.788Z,101824.41
2023-03-14T23:14:32.842Z,101824.91
2023-03-14T23:19:39.890Z,101863.63
2023-03-14T23:24:49.779Z,101842.94
2023-03-14T23:29:55.219Z,101858.16
2023-03-14T23:34:59.904Z,101882.44
2023-03-14T23:40:07.376Z,101875.06
2023-03-14T23:45:15.202Z,101880.78
2023-03-14T23:50:20.031Z,101888.72
2023-03-14T23:55:24.769Z,101892.31
